sensor_id;sensor_type;location;lat;lon;timestamp;P1;durP1;ratioP1;P2;durP2;ratioP2
15116;SDS011;7659;51.038;13.786;2023-06-14T00:00:10;4.85;;;2.30;;
15116;SDS011;7659;51.038;13.786;2023-06-14T00:02:38;10.45;;;2.72;;
15116;SDS011;7659;51.038;13.786;2023-06-14T00:05:04;8.00;;;2.42;;
15116;SDS011;7659;51.038;13.786;2023-06-14T00:07:33;7.55;;;2.60;;
15116;SDS011;7659;51.038;13.786;2023-06-14T00:09:59;6.32;;;2.25;;
15116;SDS011;7659;51.038;13.786;2023-06-14T00:12:24;3.33;;;2.13;;
15116;SDS011;7659;51.038;13.786;2023-06-14T00:14:50;5.88;;;2.10;;
15116;SDS011;7659;51.038;13.786;2023-06-14T00:17:15;13.40;;;2.85;;
15116;SDS011;7659;51.038;13.786;2023-06-14T00:19:41;6.47;;;2.40;;
15116;SDS011;7659;51.038;13.786;2023-06-14T00:22:07;4.18;;;2.20;;
15116;SDS011;7659;51.038;13.786;2023-06-14T00:24:32;3.10;;;2.25;;
15116;SDS011;7659;51.038;13.786;2023-06-14T00:26:58;11.02;;;2.50;;
15116;SDS011;7659;51.038;13.786;2023-06-14T00:29:23;8.35;;;2.08;;
15116;SDS011;7659;51.038;13.786;2023-06-14T00:31:49;5.32;;;2.67;;
15116;SDS011;7659;51.038;13.786;2023-06-14T00:34:14;4.25;;;2.15;;
15116;SDS011;7659;51.038;13.786;2023-06-14T00:36:40;4.25;;;2.40;;
15116;SDS011;7659;51.038;13.786;2023-06-14T00:39:05;4.82;;;2.47;;
15116;SDS011;7659;51.038;13.786;2023-06-14T00:41:31;3.80;;;2.03;;
15116;SDS011;7659;51.038;13.786;2023-06-14T00:43:57;3.40;;;2.38;;
15116;SDS011;7659;51.038;13.786;2023-06-14T00:46:25;3.60;;;2.05;;
15116;SDS011;7659;51.038;13.786;2023-06-14T00:48:50;6.30;;;2.40;;
15116;SDS011;7659;51.038;13.786;2023-06-14T00:51:16;3.88;;;2.25;;
15116;SDS011;7659;51.038;13.786;2023-06-14T00:53:41;7.13;;;2.33;;
15116;SDS011;7659;51.038;13.786;2023-06-14T00:56:11;4.60;;;2.30;;
15116;SDS011;7659;51.038;13.786;2023-06-14T00:58:38;3.60;;;2.22;;
15116;SDS011;7659;51.038;13.786;2023-06-14T01:01:04;4.40;;;2.33;;
15116;SDS011;7659;51.038;13.786;2023-06-14T01:03:31;3.22;;;2.17;;
15116;SDS011;7659;51.038;13.786;2023-06-14T01:06:04;2.67;;;2.05;;
15116;SDS011;7659;51.038;13.786;2023-06-14T01:08:55;4.15;;;2.35;;
15116;SDS011;7659;51.038;13.786;2023-06-14T01:11:22;3.20;;;2.38;;
15116;SDS011;7659;51.038;13.786;2023-06-14T01:13:49;7.70;;;2.25;;
15116;SDS011;7659;51.038;13.786;2023-06-14T01:16:15;3.80;;;2.50;;
15116;SDS011;7659;51.038;13.786;2023-06-14T01:18:42;3.08;;;1.98;;
15116;SDS011;7659;51.038;13.786;2023-06-14T01:21:22;8.18;;;2.80;;
15116;SDS011;7659;51.038;13.786;2023-06-14T01:23:49;6.88;;;2.70;;
15116;SDS011;7659;51.038;13.786;2023-06-14T01:26:19;8.07;;;3.83;;
15116;SDS011;7659;51.038;13.786;2023-06-14T01:28:44;13.10;;;6.10;;
15116;SDS011;7659;51.038;13.786;2023-06-14T01:31:16;12.23;;;4.68;;
15116;SDS011;7659;51.038;13.786;2023-06-14T01:33:42;10.25;;;5.38;;
15116;SDS011;7659;51.038;13.786;2023-06-14T01:36:08;6.68;;;4.05;;
15116;SDS011;7659;51.038;13.786;2023-06-14T01:38:34;5.60;;;3.58;;
15116;SDS011;7659;51.038;13.786;2023-06-14T01:41:00;4.63;;;3.20;;
15116;SDS011;7659;51.038;13.786;2023-06-14T01:43:26;8.48;;;2.70;;
15116;SDS011;7659;51.038;13.786;2023-06-14T01:45:54;10.43;;;3.33;;
15116;SDS011;7659;51.038;13.786;2023-06-14T01:48:21;6.57;;;3.00;;
15116;SDS011;7659;51.038;13.786;2023-06-14T01:50:48;8.43;;;2.83;;
15116;SDS011;7659;51.038;13.786;2023-06-14T01:53:13;6.43;;;2.50;;
15116;SDS011;7659;51.038;13.786;2023-06-14T01:55:39;3.35;;;2.63;;
15116;SDS011;7659;51.038;13.786;2023-06-14T01:58:08;4.28;;;2.42;;
15116;SDS011;7659;51.038;13.786;2023-06-14T02:00:34;7.32;;;2.67;;
15116;SDS011;7659;51.038;13.786;2023-06-14T02:03:00;7.07;;;2.67;;
15116;SDS011;7659;51.038;13.786;2023-06-14T02:05:26;7.85;;;2.97;;
15116;SDS011;7659;51.038;13.786;2023-06-14T02:07:52;4.93;;;3.13;;
15116;SDS011;7659;51.038;13.786;2023-06-14T02:10:18;6.22;;;2.83;;
15116;SDS011;7659;51.038;13.786;2023-06-14T02:12:44;3.30;;;2.50;;
15116;SDS011;7659;51.038;13.786;2023-06-14T02:15:10;4.80;;;3.15;;
15116;SDS011;7659;51.038;13.786;2023-06-14T02:17:47;6.20;;;2.92;;
15116;SDS011;7659;51.038;13.786;2023-06-14T02:20:15;5.25;;;3.28;;
15116;SDS011;7659;51.038;13.786;2023-06-14T02:22:42;6.32;;;2.92;;
15116;SDS011;7659;51.038;13.786;2023-06-14T02:25:07;4.75;;;2.85;;
15116;SDS011;7659;51.038;13.786;2023-06-14T02:27:33;3.55;;;2.97;;
15116;SDS011;7659;51.038;13.786;2023-06-14T02:29:59;5.72;;;3.30;;
15116;SDS011;7659;51.038;13.786;2023-06-14T02:32:25;4.72;;;2.50;;
15116;SDS011;7659;51.038;13.786;2023-06-14T02:34:52;5.65;;;2.67;;
15116;SDS011;7659;51.038;13.786;2023-06-14T02:37:18;5.28;;;3.08;;
15116;SDS011;7659;51.038;13.786;2023-06-14T02:39:45;4.13;;;3.42;;
15116;SDS011;7659;51.038;13.786;2023-06-14T02:42:11;4.88;;;3.10;;
15116;SDS011;7659;51.038;13.786;2023-06-14T02:44:36;3.78;;;3.08;;
15116;SDS011;7659;51.038;13.786;2023-06-14T02:47:02;4.40;;;2.95;;
15116;SDS011;7659;51.038;13.786;2023-06-14T02:49:28;7.88;;;3.55;;
15116;SDS011;7659;51.038;13.786;2023-06-14T02:51:55;8.93;;;3.17;;
15116;SDS011;7659;51.038;13.786;2023-06-14T02:54:20;4.60;;;3.20;;
15116;SDS011;7659;51.038;13.786;2023-06-14T02:56:46;5.40;;;3.20;;
15116;SDS011;7659;51.038;13.786;2023-06-14T02:59:12;6.07;;;3.30;;
15116;SDS011;7659;51.038;13.786;2023-06-14T03:01:39;4.93;;;3.20;;
15116;SDS011;7659;51.038;13.786;2023-06-14T03:04:08;6.25;;;3.15;;
15116;SDS011;7659;51.038;13.786;2023-06-14T03:06:36;9.32;;;3.67;;
15116;SDS011;7659;51.038;13.786;2023-06-14T03:09:02;6.20;;;2.60;;
15116;SDS011;7659;51.038;13.786;2023-06-14T03:11:35;6.38;;;3.65;;
15116;SDS011;7659;51.038;13.786;2023-06-14T03:14:01;6.80;;;3.70;;
15116;SDS011;7659;51.038;13.786;2023-06-14T03:16:29;4.38;;;3.20;;
15116;SDS011;7659;51.038;13.786;2023-06-14T03:18:58;6.72;;;3.30;;
15116;SDS011;7659;51.038;13.786;2023-06-14T03:21:27;5.18;;;3.53;;
15116;SDS011;7659;51.038;13.786;2023-06-14T03:23:56;5.30;;;3.25;;
15116;SDS011;7659;51.038;13.786;2023-06-14T03:26:25;5.82;;;3.38;;
15116;SDS011;7659;51.038;13.786;2023-06-14T03:28:53;5.80;;;4.00;;
15116;SDS011;7659;51.038;13.786;2023-06-14T03:31:19;3.97;;;3.40;;
15116;SDS011;7659;51.038;13.786;2023-06-14T03:33:47;5.60;;;3.55;;
15116;SDS011;7659;51.038;13.786;2023-06-14T03:36:14;4.00;;;3.00;;
15116;SDS011;7659;51.038;13.786;2023-06-14T03:38:40;6.18;;;3.17;;
15116;SDS011;7659;51.038;13.786;2023-06-14T03:41:13;4.63;;;3.53;;
15116;SDS011;7659;51.038;13.786;2023-06-14T03:43:42;6.00;;;3.55;;
15116;SDS011;7659;51.038;13.786;2023-06-14T03:46:08;4.38;;;3.38;;
15116;SDS011;7659;51.038;13.786;2023-06-14T03:48:34;4.80;;;3.20;;
15116;SDS011;7659;51.038;13.786;2023-06-14T03:51:01;5.70;;;3.25;;
15116;SDS011;7659;51.038;13.786;2023-06-14T03:53:28;6.60;;;3.72;;
15116;SDS011;7659;51.038;13.786;2023-06-14T03:55:55;4.30;;;3.35;;
15116;SDS011;7659;51.038;13.786;2023-06-14T03:58:26;5.85;;;3.83;;
15116;SDS011;7659;51.038;13.786;2023-06-14T04:00:54;6.57;;;3.70;;
15116;SDS011;7659;51.038;13.786;2023-06-14T04:03:19;6.90;;;3.17;;
15116;SDS011;7659;51.038;13.786;2023-06-14T04:05:51;6.72;;;3.53;;
15116;SDS011;7659;51.038;13.786;2023-06-14T04:08:22;5.55;;;3.95;;
15116;SDS011;7659;51.038;13.786;2023-06-14T04:10:48;6.47;;;3.30;;
15116;SDS011;7659;51.038;13.786;2023-06-14T04:13:13;7.63;;;3.78;;
15116;SDS011;7659;51.038;13.786;2023-06-14T04:15:39;5.07;;;3.95;;
15116;SDS011;7659;51.038;13.786;2023-06-14T04:18:12;7.60;;;3.63;;
15116;SDS011;7659;51.038;13.786;2023-06-14T04:20:38;7.00;;;3.45;;
15116;SDS011;7659;51.038;13.786;2023-06-14T04:23:11;6.35;;;3.60;;
15116;SDS011;7659;51.038;13.786;2023-06-14T04:25:37;6.32;;;3.10;;
15116;SDS011;7659;51.038;13.786;2023-06-14T04:28:06;4.93;;;3.55;;
15116;SDS011;7659;51.038;13.786;2023-06-14T04:30:35;7.03;;;3.80;;
15116;SDS011;7659;51.038;13.786;2023-06-14T04:33:03;5.65;;;3.65;;
15116;SDS011;7659;51.038;13.786;2023-06-14T04:35:31;8.30;;;3.90;;
15116;SDS011;7659;51.038;13.786;2023-06-14T04:38:04;9.07;;;4.65;;
15116;SDS011;7659;51.038;13.786;2023-06-14T04:40:32;9.57;;;4.47;;
15116;SDS011;7659;51.038;13.786;2023-06-14T04:42:59;7.68;;;4.22;;
15116;SDS011;7659;51.038;13.786;2023-06-14T04:45:25;10.85;;;4.43;;
15116;SDS011;7659;51.038;13.786;2023-06-14T04:47:58;7.18;;;4.00;;
15116;SDS011;7659;51.038;13.786;2023-06-14T04:50:26;8.25;;;4.20;;
15116;SDS011;7659;51.038;13.786;2023-06-14T04:52:52;8.93;;;4.45;;
15116;SDS011;7659;51.038;13.786;2023-06-14T04:55:19;7.00;;;3.97;;
15116;SDS011;7659;51.038;13.786;2023-06-14T04:57:45;8.18;;;4.00;;
15116;SDS011;7659;51.038;13.786;2023-06-14T05:00:11;6.72;;;4.25;;
15116;SDS011;7659;51.038;13.786;2023-06-14T05:02:38;7.38;;;3.88;;
15116;SDS011;7659;51.038;13.786;2023-06-14T05:05:04;7.78;;;4.28;;
15116;SDS011;7659;51.038;13.786;2023-06-14T05:07:33;8.32;;;4.38;;
15116;SDS011;7659;51.038;13.786;2023-06-14T05:10:02;7.40;;;3.95;;
15116;SDS011;7659;51.038;13.786;2023-06-14T05:12:28;7.38;;;4.28;;
15116;SDS011;7659;51.038;13.786;2023-06-14T05:14:58;7.63;;;4.18;;
15116;SDS011;7659;51.038;13.786;2023-06-14T05:17:24;4.50;;;3.75;;
15116;SDS011;7659;51.038;13.786;2023-06-14T05:19:49;9.07;;;4.30;;
15116;SDS011;7659;51.038;13.786;2023-06-14T05:22:16;5.45;;;3.90;;
15116;SDS011;7659;51.038;13.786;2023-06-14T05:24:41;6.32;;;4.18;;
15116;SDS011;7659;51.038;13.786;2023-06-14T05:27:07;10.32;;;4.20;;
15116;SDS011;7659;51.038;13.786;2023-06-14T05:29:36;7.60;;;4.90;;
15116;SDS011;7659;51.038;13.786;2023-06-14T05:32:01;9.20;;;4.15;;
15116;SDS011;7659;51.038;13.786;2023-06-14T05:34:27;6.97;;;4.22;;
15116;SDS011;7659;51.038;13.786;2023-06-14T05:37:01;7.07;;;4.60;;
15116;SDS011;7659;51.038;13.786;2023-06-14T05:39:29;7.85;;;4.80;;
15116;SDS011;7659;51.038;13.786;2023-06-14T05:41:54;7.95;;;4.43;;
15116;SDS011;7659;51.038;13.786;2023-06-14T05:44:20;6.72;;;5.38;;
15116;SDS011;7659;51.038;13.786;2023-06-14T05:46:45;6.78;;;4.60;;
15116;SDS011;7659;51.038;13.786;2023-06-14T05:49:11;7.93;;;4.70;;
15116;SDS011;7659;51.038;13.786;2023-06-14T05:51:37;10.48;;;5.10;;
15116;SDS011;7659;51.038;13.786;2023-06-14T05:54:02;7.22;;;4.68;;
15116;SDS011;7659;51.038;13.786;2023-06-14T05:56:28;6.55;;;4.78;;
15116;SDS011;7659;51.038;13.786;2023-06-14T05:58:53;7.95;;;4.90;;
15116;SDS011;7659;51.038;13.786;2023-06-14T06:01:19;5.90;;;4.20;;
15116;SDS011;7659;51.038;13.786;2023-06-14T06:03:45;6.10;;;4.72;;
15116;SDS011;7659;51.038;13.786;2023-06-14T06:06:11;5.70;;;4.47;;
15116;SDS011;7659;51.038;13.786;2023-06-14T06:08:37;9.02;;;4.82;;
15116;SDS011;7659;51.038;13.786;2023-06-14T06:11:02;8.02;;;5.05;;
15116;SDS011;7659;51.038;13.786;2023-06-14T06:13:28;7.25;;;4.75;;
15116;SDS011;7659;51.038;13.786;2023-06-14T06:15:53;6.07;;;4.53;;
15116;SDS011;7659;51.038;13.786;2023-06-14T06:18:19;7.50;;;4.88;;
15116;SDS011;7659;51.038;13.786;2023-06-14T06:20:44;6.03;;;4.93;;
15116;SDS011;7659;51.038;13.786;2023-06-14T06:23:11;6.72;;;4.78;;
15116;SDS011;7659;51.038;13.786;2023-06-14T06:25:37;6.47;;;4.68;;
15116;SDS011;7659;51.038;13.786;2023-06-14T06:28:02;13.18;;;5.05;;
15116;SDS011;7659;51.038;13.786;2023-06-14T06:30:28;7.80;;;5.25;;
15116;SDS011;7659;51.038;13.786;2023-06-14T06:32:53;8.85;;;4.57;;
15116;SDS011;7659;51.038;13.786;2023-06-14T06:35:21;7.10;;;4.70;;
15116;SDS011;7659;51.038;13.786;2023-06-14T06:37:46;7.93;;;4.80;;
15116;SDS011;7659;51.038;13.786;2023-06-14T06:40:12;8.05;;;4.45;;
15116;SDS011;7659;51.038;13.786;2023-06-14T06:42:37;8.65;;;4.40;;
15116;SDS011;7659;51.038;13.786;2023-06-14T06:45:04;6.05;;;4.82;;
15116;SDS011;7659;51.038;13.786;2023-06-14T06:47:31;7.22;;;4.90;;
15116;SDS011;7659;51.038;13.786;2023-06-14T06:49:56;7.05;;;4.97;;
15116;SDS011;7659;51.038;13.786;2023-06-14T06:52:22;9.57;;;4.97;;
15116;SDS011;7659;51.038;13.786;2023-06-14T06:54:47;8.93;;;4.78;;
15116;SDS011;7659;51.038;13.786;2023-06-14T06:57:14;7.93;;;4.00;;
15116;SDS011;7659;51.038;13.786;2023-06-14T06:59:40;8.43;;;4.15;;
15116;SDS011;7659;51.038;13.786;2023-06-14T07:02:05;8.20;;;4.50;;
15116;SDS011;7659;51.038;13.786;2023-06-14T07:04:31;5.55;;;4.40;;
15116;SDS011;7659;51.038;13.786;2023-06-14T07:06:56;9.65;;;4.85;;
15116;SDS011;7659;51.038;13.786;2023-06-14T07:09:22;8.23;;;4.22;;
15116;SDS011;7659;51.038;13.786;2023-06-14T07:11:48;7.00;;;4.05;;
15116;SDS011;7659;51.038;13.786;2023-06-14T07:14:13;7.13;;;4.50;;
15116;SDS011;7659;51.038;13.786;2023-06-14T07:16:39;4.82;;;3.75;;
15116;SDS011;7659;51.038;13.786;2023-06-14T07:19:04;5.20;;;4.10;;
15116;SDS011;7659;51.038;13.786;2023-06-14T07:21:30;6.93;;;3.78;;
15116;SDS011;7659;51.038;13.786;2023-06-14T07:23:56;8.95;;;4.75;;
15116;SDS011;7659;51.038;13.786;2023-06-14T07:26:21;5.95;;;4.03;;
15116;SDS011;7659;51.038;13.786;2023-06-14T07:28:47;7.55;;;4.15;;
15116;SDS011;7659;51.038;13.786;2023-06-14T07:31:14;9.07;;;4.10;;
15116;SDS011;7659;51.038;13.786;2023-06-14T07:33:40;6.47;;;3.90;;
15116;SDS011;7659;51.038;13.786;2023-06-14T07:36:06;7.25;;;3.65;;
15116;SDS011;7659;51.038;13.786;2023-06-14T07:38:31;4.50;;;3.60;;
15116;SDS011;7659;51.038;13.786;2023-06-14T07:40:57;3.63;;;3.33;;
15116;SDS011;7659;51.038;13.786;2023-06-14T07:43:22;6.68;;;3.72;;
15116;SDS011;7659;51.038;13.786;2023-06-14T07:45:48;5.93;;;3.45;;
15116;SDS011;7659;51.038;13.786;2023-06-14T07:48:13;4.35;;;3.35;;
15116;SDS011;7659;51.038;13.786;2023-06-14T07:50:39;4.93;;;3.40;;
15116;SDS011;7659;51.038;13.786;2023-06-14T07:53:04;5.18;;;3.00;;
15116;SDS011;7659;51.038;13.786;2023-06-14T07:55:30;4.13;;;2.88;;
15116;SDS011;7659;51.038;13.786;2023-06-14T07:57:58;2.42;;;2.10;;
15116;SDS011;7659;51.038;13.786;2023-06-14T08:00:23;5.25;;;2.80;;
15116;SDS011;7659;51.038;13.786;2023-06-14T08:02:49;5.18;;;2.67;;
15116;SDS011;7659;51.038;13.786;2023-06-14T08:05:15;3.15;;;2.55;;
15116;SDS011;7659;51.038;13.786;2023-06-14T08:07:41;5.30;;;2.63;;
15116;SDS011;7659;51.038;13.786;2023-06-14T08:10:07;18.85;;;3.00;;
15116;SDS011;7659;51.038;13.786;2023-06-14T08:12:33;10.02;;;2.72;;
15116;SDS011;7659;51.038;13.786;2023-06-14T08:14:59;12.00;;;2.58;;
15116;SDS011;7659;51.038;13.786;2023-06-14T08:17:25;3.60;;;3.00;;
15116;SDS011;7659;51.038;13.786;2023-06-14T08:19:51;4.43;;;2.83;;
15116;SDS011;7659;51.038;13.786;2023-06-14T08:22:16;2.10;;;1.75;;
15116;SDS011;7659;51.038;13.786;2023-06-14T08:24:43;5.10;;;1.80;;
15116;SDS011;7659;51.038;13.786;2023-06-14T08:27:09;4.35;;;1.80;;
15116;SDS011;7659;51.038;13.786;2023-06-14T08:29:35;4.82;;;2.17;;
15116;SDS011;7659;51.038;13.786;2023-06-14T08:32:00;2.25;;;1.92;;
15116;SDS011;7659;51.038;13.786;2023-06-14T08:34:27;2.13;;;1.92;;
15116;SDS011;7659;51.038;13.786;2023-06-14T08:36:52;3.33;;;2.30;;
15116;SDS011;7659;51.038;13.786;2023-06-14T08:39:18;5.20;;;2.08;;
15116;SDS011;7659;51.038;13.786;2023-06-14T08:41:46;2.75;;;1.80;;
15116;SDS011;7659;51.038;13.786;2023-06-14T08:44:14;2.10;;;1.70;;
15116;SDS011;7659;51.038;13.786;2023-06-14T08:46:40;8.98;;;2.75;;
15116;SDS011;7659;51.038;13.786;2023-06-14T08:49:06;2.88;;;2.08;;
15116;SDS011;7659;51.038;13.786;2023-06-14T08:51:33;4.50;;;2.08;;
15116;SDS011;7659;51.038;13.786;2023-06-14T08:54:01;5.10;;;2.50;;
15116;SDS011;7659;51.038;13.786;2023-06-14T08:56:29;8.48;;;2.40;;
15116;SDS011;7659;51.038;13.786;2023-06-14T08:58:56;5.18;;;2.38;;
15116;SDS011;7659;51.038;13.786;2023-06-14T09:01:22;9.48;;;2.50;;
15116;SDS011;7659;51.038;13.786;2023-06-14T09:03:49;4.65;;;2.80;;
15116;SDS011;7659;51.038;13.786;2023-06-14T09:06:14;2.85;;;2.30;;
15116;SDS011;7659;51.038;13.786;2023-06-14T09:08:44;3.65;;;2.60;;
15116;SDS011;7659;51.038;13.786;2023-06-14T09:11:10;5.95;;;2.60;;
15116;SDS011;7659;51.038;13.786;2023-06-14T09:13:36;3.05;;;2.75;;
15116;SDS011;7659;51.038;13.786;2023-06-14T09:16:01;5.22;;;2.50;;
15116;SDS011;7659;51.038;13.786;2023-06-14T09:18:37;4.95;;;2.67;;
15116;SDS011;7659;51.038;13.786;2023-06-14T09:21:05;2.72;;;2.45;;
15116;SDS011;7659;51.038;13.786;2023-06-14T09:23:33;4.18;;;2.25;;
15116;SDS011;7659;51.038;13.786;2023-06-14T09:25:58;5.07;;;3.08;;
15116;SDS011;7659;51.038;13.786;2023-06-14T09:28:27;5.90;;;3.42;;
15116;SDS011;7659;51.038;13.786;2023-06-14T09:30:53;6.65;;;3.00;;
15116;SDS011;7659;51.038;13.786;2023-06-14T09:33:18;5.25;;;2.90;;
15116;SDS011;7659;51.038;13.786;2023-06-14T09:35:50;3.30;;;2.80;;
15116;SDS011;7659;51.038;13.786;2023-06-14T09:38:16;8.23;;;4.50;;
15116;SDS011;7659;51.038;13.786;2023-06-14T09:40:41;4.63;;;3.88;;
15116;SDS011;7659;51.038;13.786;2023-06-14T09:43:07;7.03;;;3.53;;
15116;SDS011;7659;51.038;13.786;2023-06-14T09:45:35;6.22;;;3.30;;
15116;SDS011;7659;51.038;13.786;2023-06-14T09:48:01;4.53;;;3.72;;
15116;SDS011;7659;51.038;13.786;2023-06-14T09:50:27;4.10;;;3.33;;
15116;SDS011;7659;51.038;13.786;2023-06-14T09:52:52;5.15;;;3.42;;
15116;SDS011;7659;51.038;13.786;2023-06-14T09:55:20;5.82;;;3.13;;
15116;SDS011;7659;51.038;13.786;2023-06-14T09:57:47;10.85;;;3.30;;
15116;SDS011;7659;51.038;13.786;2023-06-14T10:00:14;12.57;;;3.30;;
15116;SDS011;7659;51.038;13.786;2023-06-14T10:02:40;9.80;;;3.47;;
15116;SDS011;7659;51.038;13.786;2023-06-14T10:05:08;10.75;;;2.53;;
15116;SDS011;7659;51.038;13.786;2023-06-14T10:10:06;4.57;;;2.42;;
15116;SDS011;7659;51.038;13.786;2023-06-14T10:12:32;3.63;;;2.50;;
15116;SDS011;7659;51.038;13.786;2023-06-14T10:14:57;5.35;;;3.15;;
15116;SDS011;7659;51.038;13.786;2023-06-14T10:17:45;3.97;;;2.75;;
15116;SDS011;7659;51.038;13.786;2023-06-14T10:25:12;4.32;;;2.10;;
15116;SDS011;7659;51.038;13.786;2023-06-14T10:27:38;3.05;;;1.88;;
15116;SDS011;7659;51.038;13.786;2023-06-14T10:30:04;4.07;;;2.42;;
15116;SDS011;7659;51.038;13.786;2023-06-14T10:32:31;2.85;;;2.47;;
15116;SDS011;7659;51.038;13.786;2023-06-14T10:34:57;3.45;;;2.00;;
15116;SDS011;7659;51.038;13.786;2023-06-14T10:37:23;4.45;;;1.85;;
15116;SDS011;7659;51.038;13.786;2023-06-14T10:39:49;5.78;;;2.00;;
15116;SDS011;7659;51.038;13.786;2023-06-14T10:42:15;3.67;;;2.35;;
15116;SDS011;7659;51.038;13.786;2023-06-14T10:44:41;8.00;;;2.67;;
15116;SDS011;7659;51.038;13.786;2023-06-14T10:47:09;3.40;;;2.38;;
15116;SDS011;7659;51.038;13.786;2023-06-14T10:52:14;5.38;;;2.95;;
15116;SDS011;7659;51.038;13.786;2023-06-14T10:54:59;4.43;;;2.60;;
15116;SDS011;7659;51.038;13.786;2023-06-14T10:57:26;11.05;;;3.13;;
15116;SDS011;7659;51.038;13.786;2023-06-14T10:59:51;2.97;;;2.50;;
15116;SDS011;7659;51.038;13.786;2023-06-14T11:05:03;3.03;;;2.67;;
15116;SDS011;7659;51.038;13.786;2023-06-14T11:07:55;6.72;;;2.72;;
15116;SDS011;7659;51.038;13.786;2023-06-14T11:12:55;2.83;;;2.25;;
15116;SDS011;7659;51.038;13.786;2023-06-14T11:15:27;2.55;;;2.28;;
15116;SDS011;7659;51.038;13.786;2023-06-14T11:17:53;5.20;;;3.08;;
15116;SDS011;7659;51.038;13.786;2023-06-14T11:20:19;6.38;;;2.80;;
15116;SDS011;7659;51.038;13.786;2023-06-14T11:22:45;4.40;;;2.97;;
15116;SDS011;7659;51.038;13.786;2023-06-14T11:25:13;4.03;;;2.90;;
15116;SDS011;7659;51.038;13.786;2023-06-14T11:27:39;4.72;;;2.63;;
15116;SDS011;7659;51.038;13.786;2023-06-14T11:30:06;5.10;;;2.92;;
15116;SDS011;7659;51.038;13.786;2023-06-14T11:32:32;4.88;;;3.03;;
15116;SDS011;7659;51.038;13.786;2023-06-14T11:34:57;5.70;;;2.88;;
15116;SDS011;7659;51.038;13.786;2023-06-14T11:37:27;3.88;;;3.05;;
15116;SDS011;7659;51.038;13.786;2023-06-14T11:39:57;4.80;;;3.30;;
15116;SDS011;7659;51.038;13.786;2023-06-14T11:42:23;3.90;;;2.78;;
15116;SDS011;7659;51.038;13.786;2023-06-14T11:44:49;6.70;;;3.05;;
15116;SDS011;7659;51.038;13.786;2023-06-14T11:47:15;7.43;;;2.80;;
15116;SDS011;7659;51.038;13.786;2023-06-14T11:49:40;6.40;;;3.17;;
15116;SDS011;7659;51.038;13.786;2023-06-14T11:52:07;3.60;;;3.08;;
15116;SDS011;7659;51.038;13.786;2023-06-14T11:54:32;6.97;;;3.08;;
15116;SDS011;7659;51.038;13.786;2023-06-14T11:56:58;4.97;;;2.80;;
15116;SDS011;7659;51.038;13.786;2023-06-14T11:59:24;7.03;;;2.78;;
15116;SDS011;7659;51.038;13.786;2023-06-14T12:01:49;7.95;;;2.90;;
15116;SDS011;7659;51.038;13.786;2023-06-14T12:04:22;3.75;;;2.65;;
15116;SDS011;7659;51.038;13.786;2023-06-14T12:06:48;4.82;;;2.70;;
15116;SDS011;7659;51.038;13.786;2023-06-14T12:09:14;5.50;;;2.42;;
15116;SDS011;7659;51.038;13.786;2023-06-14T12:11:42;6.18;;;2.90;;
15116;SDS011;7659;51.038;13.786;2023-06-14T12:14:08;7.93;;;2.95;;
15116;SDS011;7659;51.038;13.786;2023-06-14T12:16:34;5.00;;;2.75;;
15116;SDS011;7659;51.038;13.786;2023-06-14T12:19:01;3.70;;;2.90;;
15116;SDS011;7659;51.038;13.786;2023-06-14T12:21:32;5.63;;;2.78;;
15116;SDS011;7659;51.038;13.786;2023-06-14T12:24:03;3.97;;;2.30;;
15116;SDS011;7659;51.038;13.786;2023-06-14T12:26:28;5.68;;;3.03;;
15116;SDS011;7659;51.038;13.786;2023-06-14T12:28:54;7.38;;;2.72;;
15116;SDS011;7659;51.038;13.786;2023-06-14T12:31:19;4.15;;;3.17;;
15116;SDS011;7659;51.038;13.786;2023-06-14T12:33:46;14.77;;;3.03;;
15116;SDS011;7659;51.038;13.786;2023-06-14T12:36:14;4.32;;;3.10;;
15116;SDS011;7659;51.038;13.786;2023-06-14T12:38:40;6.00;;;2.92;;
15116;SDS011;7659;51.038;13.786;2023-06-14T12:41:06;3.83;;;2.85;;
15116;SDS011;7659;51.038;13.786;2023-06-14T12:43:33;4.53;;;2.67;;
15116;SDS011;7659;51.038;13.786;2023-06-14T12:45:59;3.88;;;2.40;;
15116;SDS011;7659;51.038;13.786;2023-06-14T12:48:24;2.97;;;2.47;;
15116;SDS011;7659;51.038;13.786;2023-06-14T12:50:50;5.35;;;2.78;;
15116;SDS011;7659;51.038;13.786;2023-06-14T12:53:15;6.35;;;2.50;;
15116;SDS011;7659;51.038;13.786;2023-06-14T12:55:41;4.22;;;2.58;;
15116;SDS011;7659;51.038;13.786;2023-06-14T12:58:06;7.50;;;2.70;;
15116;SDS011;7659;51.038;13.786;2023-06-14T13:00:32;7.85;;;2.78;;
15116;SDS011;7659;51.038;13.786;2023-06-14T13:02:57;3.55;;;2.45;;
15116;SDS011;7659;51.038;13.786;2023-06-14T13:05:23;6.22;;;2.65;;
15116;SDS011;7659;51.038;13.786;2023-06-14T13:07:49;4.68;;;2.55;;
15116;SDS011;7659;51.038;13.786;2023-06-14T13:10:15;3.97;;;2.72;;
15116;SDS011;7659;51.038;13.786;2023-06-14T13:12:41;11.20;;;2.80;;
15116;SDS011;7659;51.038;13.786;2023-06-14T13:15:06;6.65;;;2.55;;
15116;SDS011;7659;51.038;13.786;2023-06-14T13:17:33;5.80;;;2.20;;
15116;SDS011;7659;51.038;13.786;2023-06-14T13:20:06;3.83;;;2.35;;
15116;SDS011;7659;51.038;13.786;2023-06-14T13:22:32;2.83;;;2.20;;
15116;SDS011;7659;51.038;13.786;2023-06-14T13:24:58;4.85;;;2.30;;
15116;SDS011;7659;51.038;13.786;2023-06-14T13:27:23;2.60;;;1.92;;
15116;SDS011;7659;51.038;13.786;2023-06-14T13:29:50;6.53;;;2.30;;
15116;SDS011;7659;51.038;13.786;2023-06-14T13:32:15;4.75;;;2.88;;
15116;SDS011;7659;51.038;13.786;2023-06-14T13:34:41;4.60;;;2.83;;
15116;SDS011;7659;51.038;13.786;2023-06-14T13:37:06;6.90;;;2.70;;
15116;SDS011;7659;51.038;13.786;2023-06-14T13:39:32;5.55;;;2.88;;
15116;SDS011;7659;51.038;13.786;2023-06-14T13:41:57;4.35;;;2.80;;
15116;SDS011;7659;51.038;13.786;2023-06-14T13:44:23;4.80;;;2.85;;
15116;SDS011;7659;51.038;13.786;2023-06-14T13:46:50;7.63;;;3.00;;
15116;SDS011;7659;51.038;13.786;2023-06-14T13:49:16;7.32;;;2.75;;
15116;SDS011;7659;51.038;13.786;2023-06-14T13:51:42;2.42;;;2.00;;
15116;SDS011;7659;51.038;13.786;2023-06-14T13:54:20;2.45;;;1.73;;
15116;SDS011;7659;51.038;13.786;2023-06-14T13:56:46;3.67;;;1.63;;
15116;SDS011;7659;51.038;13.786;2023-06-14T13:59:12;3.45;;;1.67;;
15116;SDS011;7659;51.038;13.786;2023-06-14T14:01:38;3.47;;;1.60;;
15116;SDS011;7659;51.038;13.786;2023-06-14T14:04:04;5.00;;;1.50;;
15116;SDS011;7659;51.038;13.786;2023-06-14T14:06:30;3.40;;;1.40;;
15116;SDS011;7659;51.038;13.786;2023-06-14T14:08:56;4.68;;;1.30;;
15116;SDS011;7659;51.038;13.786;2023-06-14T14:11:21;2.58;;;1.05;;
15116;SDS011;7659;51.038;13.786;2023-06-14T14:13:48;5.75;;;1.45;;
15116;SDS011;7659;51.038;13.786;2023-06-14T14:16:14;3.60;;;1.60;;
15116;SDS011;7659;51.038;13.786;2023-06-14T14:18:39;4.03;;;1.60;;
15116;SDS011;7659;51.038;13.786;2023-06-14T14:21:05;3.67;;;1.67;;
15116;SDS011;7659;51.038;13.786;2023-06-14T14:23:31;3.53;;;1.65;;
15116;SDS011;7659;51.038;13.786;2023-06-14T14:25:56;3.92;;;2.30;;
15116;SDS011;7659;51.038;13.786;2023-06-14T14:28:22;3.13;;;1.70;;
15116;SDS011;7659;51.038;13.786;2023-06-14T14:30:47;7.80;;;1.50;;
15116;SDS011;7659;51.038;13.786;2023-06-14T14:33:13;3.15;;;1.40;;
15116;SDS011;7659;51.038;13.786;2023-06-14T14:35:49;4.13;;;1.45;;
15116;SDS011;7659;51.038;13.786;2023-06-14T14:38:15;8.25;;;1.55;;
15116;SDS011;7659;51.038;13.786;2023-06-14T14:40:41;3.42;;;1.40;;
15116;SDS011;7659;51.038;13.786;2023-06-14T14:43:07;8.20;;;1.73;;
15116;SDS011;7659;51.038;13.786;2023-06-14T14:45:32;4.30;;;1.55;;
15116;SDS011;7659;51.038;13.786;2023-06-14T14:47:58;2.53;;;1.50;;
15116;SDS011;7659;51.038;13.786;2023-06-14T14:50:25;2.45;;;1.58;;
15116;SDS011;7659;51.038;13.786;2023-06-14T14:52:50;2.35;;;1.58;;
15116;SDS011;7659;51.038;13.786;2023-06-14T14:55:16;1.55;;;1.23;;
15116;SDS011;7659;51.038;13.786;2023-06-14T14:57:43;3.35;;;1.88;;
15116;SDS011;7659;51.038;13.786;2023-06-14T15:00:08;4.05;;;1.65;;